QUAO2: Spring River Near Quapaw, OK

Data processed at Fri Jan 05 2018 23:21


All information presented herein is the property of the government of the United States of America and may be revised or deleted at any time without prior notice.
Dissemination of this information without the expressed written consent of the Public Affairs Office, Tulsa District U.S. Army Corps of Engineers is strictly prohibited.
These data are gathered electronically and, as presented, have not undergone any form of quality control. These data are not guaranteed to be valid or correct.
Go to home page.
Go to station list.

Upstream stations:

Downstream station:
Previous Day
Next Day
Current Day
    
SHEF ID:       QUAO2     Spring River near Quapaw, OK
STATION TYPE:  

               PRECIP     STAGE  STAGE(2)  RIV-FLOW  BAT-LOAD
                   in        ft        ft       cfs      volt
              Ccp-Rev   Ccp-Rev   Ccp-Rev   Ccp-Rev   Ccp-Rev
(US/Central)
01/03 00:00      0.00     41.12      5.69    173664     12.41
01/03 01:00      0.00     41.37      5.52    176165     12.41
01/03 02:00      0.00     41.40      5.57    176467     12.33
01/03 03:00      0.00     41.48      5.63    177272     12.33
01/03 04:00      0.00     39.84      5.50    161149     12.25
01/03 05:00      0.00     39.10      5.57    154126     12.25
01/03 06:00      0.00     39.31      5.59    156111     12.17
01/03 07:00      0.00     39.06      5.30    153744     12.17
01/03 08:00      0.00     39.32      5.60    156205     12.17
01/03 09:00      0.00     39.84      5.56    161149     12.41
01/03 10:00      0.00      5.86      5.52       271     13.29
01/03 11:00      0.00      5.93      5.60       295     13.44
01/03 12:00      0.00      6.02      5.85       327     13.44
01/03 13:00      0.00      6.08      6.01       350     13.53
01/03 14:00      0.00      6.11      6.16       362     13.53
01/03 15:00      0.00      6.11      6.10       362     13.53
01/03 16:00      0.00      6.08      6.07       350     13.53
01/03 17:00      0.00      6.05      5.76       339     13.44
01/03 18:00      0.00      6.01      5.67       324     12.97
01/03 19:00      0.00      5.98      5.54       313     12.73
01/03 20:00      0.00      5.96      5.53       306     12.65
01/03 21:00      0.00      5.94      5.70       299     12.57
01/03 22:00      0.00      5.92      5.76       292     12.57
01/03 23:00      0.00      5.90      5.71       285     12.49